sensor_id;sensor_type;location;lat;lon;timestamp;P1;durP1;ratioP1;P2;durP2;ratioP2
16436;SDS011;8328;52.206;21.006;2022-09-03T00:02:41;6.83;;;3.37;;
16436;SDS011;8328;52.206;21.006;2022-09-03T00:05:15;5.43;;;3.37;;
16436;SDS011;8328;52.206;21.006;2022-09-03T00:07:59;5.00;;;3.10;;
16436;SDS011;8328;52.206;21.006;2022-09-03T00:13:23;5.07;;;3.37;;
16436;SDS011;8328;52.206;21.006;2022-09-03T00:15:53;7.33;;;3.37;;
16436;SDS011;8328;52.206;21.006;2022-09-03T00:18:22;6.63;;;3.53;;
16436;SDS011;8328;52.206;21.006;2022-09-03T00:20:57;8.43;;;3.20;;
16436;SDS011;8328;52.206;21.006;2022-09-03T00:23:34;9.27;;;3.73;;
16436;SDS011;8328;52.206;21.006;2022-09-03T00:29:20;5.03;;;3.40;;
16436;SDS011;8328;52.206;21.006;2022-09-03T00:32:10;4.77;;;3.27;;
16436;SDS011;8328;52.206;21.006;2022-09-03T00:34:39;8.10;;;3.90;;
16436;SDS011;8328;52.206;21.006;2022-09-03T00:37:09;7.27;;;3.67;;
16436;SDS011;8328;52.206;21.006;2022-09-03T00:39:36;6.27;;;3.57;;
16436;SDS011;8328;52.206;21.006;2022-09-03T00:42:24;7.53;;;3.53;;
16436;SDS011;8328;52.206;21.006;2022-09-03T00:44:57;7.17;;;3.70;;
16436;SDS011;8328;52.206;21.006;2022-09-03T00:47:48;6.33;;;3.53;;
16436;SDS011;8328;52.206;21.006;2022-09-03T00:56:24;7.00;;;3.53;;
16436;SDS011;8328;52.206;21.006;2022-09-03T01:07:08;5.30;;;3.30;;
16436;SDS011;8328;52.206;21.006;2022-09-03T01:09:43;6.70;;;3.60;;
16436;SDS011;8328;52.206;21.006;2022-09-03T01:12:24;5.97;;;3.47;;
16436;SDS011;8328;52.206;21.006;2022-09-03T01:17:58;7.03;;;3.00;;
16436;SDS011;8328;52.206;21.006;2022-09-03T01:20:37;6.37;;;3.30;;
16436;SDS011;8328;52.206;21.006;2022-09-03T01:32:00;5.83;;;3.27;;
16436;SDS011;8328;52.206;21.006;2022-09-03T01:37:34;7.77;;;3.97;;
16436;SDS011;8328;52.206;21.006;2022-09-03T01:48:24;5.40;;;3.80;;
16436;SDS011;8328;52.206;21.006;2022-09-03T01:51:15;6.90;;;3.50;;
16436;SDS011;8328;52.206;21.006;2022-09-03T02:01:24;5.87;;;2.97;;
16436;SDS011;8328;52.206;21.006;2022-09-03T02:03:56;6.87;;;3.43;;
16436;SDS011;8328;52.206;21.006;2022-09-03T02:06:24;5.17;;;3.10;;
16436;SDS011;8328;52.206;21.006;2022-09-03T02:08:51;3.77;;;2.90;;
16436;SDS011;8328;52.206;21.006;2022-09-03T02:11:18;6.70;;;3.03;;
16436;SDS011;8328;52.206;21.006;2022-09-03T02:13:44;4.97;;;3.13;;
16436;SDS011;8328;52.206;21.006;2022-09-03T02:16:16;5.53;;;3.53;;
16436;SDS011;8328;52.206;21.006;2022-09-03T02:18:58;6.63;;;3.30;;
16436;SDS011;8328;52.206;21.006;2022-09-03T02:21:27;5.27;;;3.20;;
16436;SDS011;8328;52.206;21.006;2022-09-03T02:24:03;5.10;;;2.90;;
16436;SDS011;8328;52.206;21.006;2022-09-03T02:26:30;6.40;;;3.17;;
16436;SDS011;8328;52.206;21.006;2022-09-03T02:28:56;4.57;;;2.83;;
16436;SDS011;8328;52.206;21.006;2022-09-03T02:31:22;5.00;;;3.17;;
16436;SDS011;8328;52.206;21.006;2022-09-03T02:33:49;4.07;;;3.03;;
16436;SDS011;8328;52.206;21.006;2022-09-03T02:36:16;5.17;;;3.00;;
16436;SDS011;8328;52.206;21.006;2022-09-03T02:38:44;3.67;;;2.87;;
16436;SDS011;8328;52.206;21.006;2022-09-03T02:41:11;5.03;;;3.30;;
16436;SDS011;8328;52.206;21.006;2022-09-03T02:43:41;5.13;;;3.00;;
16436;SDS011;8328;52.206;21.006;2022-09-03T02:46:21;6.70;;;3.10;;
16436;SDS011;8328;52.206;21.006;2022-09-03T02:48:56;4.10;;;3.10;;
16436;SDS011;8328;52.206;21.006;2022-09-03T02:51:21;4.60;;;3.23;;
16436;SDS011;8328;52.206;21.006;2022-09-03T02:53:47;4.90;;;3.33;;
16436;SDS011;8328;52.206;21.006;2022-09-03T02:56:13;6.37;;;3.37;;
16436;SDS011;8328;52.206;21.006;2022-09-03T02:58:39;5.57;;;3.10;;
16436;SDS011;8328;52.206;21.006;2022-09-03T03:01:05;5.33;;;2.80;;
16436;SDS011;8328;52.206;21.006;2022-09-03T03:03:31;5.43;;;3.40;;
16436;SDS011;8328;52.206;21.006;2022-09-03T03:05:59;4.47;;;2.70;;
16436;SDS011;8328;52.206;21.006;2022-09-03T03:08:27;4.20;;;2.97;;
16436;SDS011;8328;52.206;21.006;2022-09-03T03:10:55;5.27;;;2.70;;
16436;SDS011;8328;52.206;21.006;2022-09-03T03:13:23;3.87;;;2.97;;
16436;SDS011;8328;52.206;21.006;2022-09-03T03:15:49;5.97;;;2.90;;
16436;SDS011;8328;52.206;21.006;2022-09-03T03:18:15;8.53;;;3.50;;
16436;SDS011;8328;52.206;21.006;2022-09-03T03:20:41;8.73;;;4.10;;
16436;SDS011;8328;52.206;21.006;2022-09-03T03:23:08;4.23;;;2.80;;
16436;SDS011;8328;52.206;21.006;2022-09-03T03:25:35;4.57;;;2.93;;
16436;SDS011;8328;52.206;21.006;2022-09-03T03:28:03;4.67;;;3.50;;
16436;SDS011;8328;52.206;21.006;2022-09-03T03:30:29;7.97;;;3.77;;
16436;SDS011;8328;52.206;21.006;2022-09-03T03:32:56;7.63;;;5.00;;
16436;SDS011;8328;52.206;21.006;2022-09-03T03:35:22;8.67;;;4.20;;
16436;SDS011;8328;52.206;21.006;2022-09-03T03:37:48;7.07;;;4.20;;
16436;SDS011;8328;52.206;21.006;2022-09-03T03:40:15;8.07;;;3.53;;
16436;SDS011;8328;52.206;21.006;2022-09-03T03:42:41;5.87;;;3.20;;
16436;SDS011;8328;52.206;21.006;2022-09-03T03:45:07;6.87;;;3.50;;
16436;SDS011;8328;52.206;21.006;2022-09-03T03:47:34;4.93;;;3.00;;
16436;SDS011;8328;52.206;21.006;2022-09-03T03:50:00;5.13;;;3.30;;
16436;SDS011;8328;52.206;21.006;2022-09-03T03:52:27;5.50;;;3.37;;
16436;SDS011;8328;52.206;21.006;2022-09-03T03:54:53;6.60;;;4.77;;
16436;SDS011;8328;52.206;21.006;2022-09-03T03:57:19;7.27;;;4.07;;
16436;SDS011;8328;52.206;21.006;2022-09-03T03:59:45;4.60;;;3.00;;
16436;SDS011;8328;52.206;21.006;2022-09-03T04:02:12;6.87;;;3.33;;
16436;SDS011;8328;52.206;21.006;2022-09-03T04:04:39;5.93;;;3.80;;
16436;SDS011;8328;52.206;21.006;2022-09-03T04:07:05;4.57;;;3.83;;
16436;SDS011;8328;52.206;21.006;2022-09-03T04:09:31;5.50;;;3.60;;
16436;SDS011;8328;52.206;21.006;2022-09-03T04:11:58;4.93;;;3.40;;
16436;SDS011;8328;52.206;21.006;2022-09-03T04:14:24;5.77;;;3.80;;
16436;SDS011;8328;52.206;21.006;2022-09-03T04:16:51;6.10;;;3.50;;
16436;SDS011;8328;52.206;21.006;2022-09-03T04:19:17;5.90;;;3.67;;
16436;SDS011;8328;52.206;21.006;2022-09-03T04:21:43;5.37;;;3.17;;
16436;SDS011;8328;52.206;21.006;2022-09-03T04:24:09;7.27;;;3.77;;
16436;SDS011;8328;52.206;21.006;2022-09-03T04:26:35;6.63;;;3.40;;
16436;SDS011;8328;52.206;21.006;2022-09-03T04:29:03;7.47;;;3.57;;
16436;SDS011;8328;52.206;21.006;2022-09-03T04:31:30;5.53;;;3.47;;
16436;SDS011;8328;52.206;21.006;2022-09-03T04:33:57;4.27;;;3.00;;
16436;SDS011;8328;52.206;21.006;2022-09-03T04:36:24;5.73;;;2.93;;
16436;SDS011;8328;52.206;21.006;2022-09-03T04:38:52;7.23;;;3.27;;
16436;SDS011;8328;52.206;21.006;2022-09-03T04:41:23;6.13;;;3.40;;
16436;SDS011;8328;52.206;21.006;2022-09-03T04:43:52;6.53;;;3.43;;
16436;SDS011;8328;52.206;21.006;2022-09-03T04:46:19;3.77;;;2.80;;
16436;SDS011;8328;52.206;21.006;2022-09-03T04:48:46;6.77;;;3.27;;
16436;SDS011;8328;52.206;21.006;2022-09-03T04:51:15;5.13;;;2.90;;
16436;SDS011;8328;52.206;21.006;2022-09-03T04:53:44;3.67;;;3.00;;
16436;SDS011;8328;52.206;21.006;2022-09-03T04:56:12;5.03;;;2.97;;
16436;SDS011;8328;52.206;21.006;2022-09-03T04:58:40;5.33;;;3.20;;
16436;SDS011;8328;52.206;21.006;2022-09-03T05:01:11;6.97;;;3.40;;
16436;SDS011;8328;52.206;21.006;2022-09-03T05:03:42;4.57;;;3.00;;
16436;SDS011;8328;52.206;21.006;2022-09-03T05:06:08;6.43;;;3.57;;
16436;SDS011;8328;52.206;21.006;2022-09-03T05:08:35;5.23;;;2.73;;
16436;SDS011;8328;52.206;21.006;2022-09-03T05:11:02;6.97;;;2.93;;
16436;SDS011;8328;52.206;21.006;2022-09-03T05:13:29;4.20;;;3.23;;
16436;SDS011;8328;52.206;21.006;2022-09-03T05:15:59;5.30;;;2.90;;
16436;SDS011;8328;52.206;21.006;2022-09-03T05:18:25;4.70;;;2.60;;
16436;SDS011;8328;52.206;21.006;2022-09-03T05:20:58;6.37;;;3.20;;
16436;SDS011;8328;52.206;21.006;2022-09-03T05:23:29;4.97;;;3.10;;
16436;SDS011;8328;52.206;21.006;2022-09-03T05:25:56;4.80;;;3.03;;
16436;SDS011;8328;52.206;21.006;2022-09-03T05:28:23;5.30;;;4.13;;
16436;SDS011;8328;52.206;21.006;2022-09-03T05:30:58;4.37;;;3.57;;
16436;SDS011;8328;52.206;21.006;2022-09-03T05:33:28;8.23;;;4.80;;
16436;SDS011;8328;52.206;21.006;2022-09-03T05:36:04;8.87;;;4.47;;
16436;SDS011;8328;52.206;21.006;2022-09-03T05:38:31;9.23;;;6.50;;
16436;SDS011;8328;52.206;21.006;2022-09-03T05:41:01;6.83;;;4.50;;
16436;SDS011;8328;52.206;21.006;2022-09-03T05:43:29;5.03;;;2.70;;
16436;SDS011;8328;52.206;21.006;2022-09-03T05:45:59;8.87;;;5.00;;
16436;SDS011;8328;52.206;21.006;2022-09-03T05:48:28;9.00;;;4.23;;
16436;SDS011;8328;52.206;21.006;2022-09-03T05:51:02;9.53;;;7.10;;
16436;SDS011;8328;52.206;21.006;2022-09-03T05:53:33;15.03;;;8.40;;
16436;SDS011;8328;52.206;21.006;2022-09-03T05:56:02;11.07;;;4.07;;
16436;SDS011;8328;52.206;21.006;2022-09-03T05:58:30;8.63;;;4.10;;
16436;SDS011;8328;52.206;21.006;2022-09-03T06:03:44;7.37;;;3.70;;
16436;SDS011;8328;52.206;21.006;2022-09-03T06:06:11;6.27;;;3.80;;
16436;SDS011;8328;52.206;21.006;2022-09-03T06:08:40;8.23;;;4.00;;
16436;SDS011;8328;52.206;21.006;2022-09-03T06:11:08;5.37;;;2.43;;
16436;SDS011;8328;52.206;21.006;2022-09-03T06:13:35;5.77;;;3.67;;
16436;SDS011;8328;52.206;21.006;2022-09-03T06:16:04;6.93;;;3.27;;
16436;SDS011;8328;52.206;21.006;2022-09-03T06:18:31;5.97;;;3.23;;
16436;SDS011;8328;52.206;21.006;2022-09-03T06:21:01;6.40;;;4.40;;
16436;SDS011;8328;52.206;21.006;2022-09-03T06:23:32;6.40;;;2.70;;
16436;SDS011;8328;52.206;21.006;2022-09-03T06:26:06;8.57;;;3.63;;
16436;SDS011;8328;52.206;21.006;2022-09-03T06:28:35;7.10;;;3.37;;
16436;SDS011;8328;52.206;21.006;2022-09-03T06:31:06;5.13;;;2.50;;
16436;SDS011;8328;52.206;21.006;2022-09-03T06:33:34;6.53;;;3.83;;
16436;SDS011;8328;52.206;21.006;2022-09-03T06:36:02;7.90;;;3.43;;
16436;SDS011;8328;52.206;21.006;2022-09-03T06:38:34;4.70;;;2.70;;
16436;SDS011;8328;52.206;21.006;2022-09-03T06:41:03;5.67;;;2.60;;
16436;SDS011;8328;52.206;21.006;2022-09-03T06:43:32;7.97;;;4.63;;
16436;SDS011;8328;52.206;21.006;2022-09-03T06:46:00;8.03;;;4.90;;
16436;SDS011;8328;52.206;21.006;2022-09-03T06:48:37;5.93;;;3.87;;
16436;SDS011;8328;52.206;21.006;2022-09-03T06:51:06;6.33;;;3.60;;
16436;SDS011;8328;52.206;21.006;2022-09-03T06:53:35;7.67;;;3.13;;
16436;SDS011;8328;52.206;21.006;2022-09-03T06:56:06;9.07;;;4.33;;
16436;SDS011;8328;52.206;21.006;2022-09-03T06:58:34;7.13;;;2.87;;
16436;SDS011;8328;52.206;21.006;2022-09-03T07:01:02;5.27;;;2.73;;
16436;SDS011;8328;52.206;21.006;2022-09-03T07:03:35;5.33;;;2.80;;
16436;SDS011;8328;52.206;21.006;2022-09-03T07:06:03;5.90;;;3.00;;
16436;SDS011;8328;52.206;21.006;2022-09-03T07:08:40;6.37;;;2.77;;
16436;SDS011;8328;52.206;21.006;2022-09-03T07:11:11;3.90;;;2.73;;
16436;SDS011;8328;52.206;21.006;2022-09-03T07:13:39;6.20;;;2.67;;
16436;SDS011;8328;52.206;21.006;2022-09-03T07:16:11;6.03;;;2.63;;
16436;SDS011;8328;52.206;21.006;2022-09-03T07:18:39;7.27;;;2.93;;
16436;SDS011;8328;52.206;21.006;2022-09-03T07:21:09;5.03;;;2.57;;
16436;SDS011;8328;52.206;21.006;2022-09-03T07:23:36;4.67;;;2.60;;
16436;SDS011;8328;52.206;21.006;2022-09-03T07:26:04;6.60;;;4.87;;
16436;SDS011;8328;52.206;21.006;2022-09-03T07:28:41;6.67;;;3.20;;
16436;SDS011;8328;52.206;21.006;2022-09-03T07:31:14;3.00;;;2.43;;
16436;SDS011;8328;52.206;21.006;2022-09-03T07:33:43;6.50;;;2.70;;
16436;SDS011;8328;52.206;21.006;2022-09-03T07:36:11;2.97;;;2.07;;
16436;SDS011;8328;52.206;21.006;2022-09-03T07:38:39;9.07;;;3.47;;
16436;SDS011;8328;52.206;21.006;2022-09-03T07:41:07;6.27;;;2.40;;
16436;SDS011;8328;52.206;21.006;2022-09-03T07:43:35;3.50;;;2.13;;
16436;SDS011;8328;52.206;21.006;2022-09-03T07:46:04;3.93;;;2.10;;
16436;SDS011;8328;52.206;21.006;2022-09-03T07:48:37;5.93;;;2.57;;
16436;SDS011;8328;52.206;21.006;2022-09-03T07:51:05;3.30;;;2.23;;
16436;SDS011;8328;52.206;21.006;2022-09-03T07:53:31;7.07;;;2.77;;
16436;SDS011;8328;52.206;21.006;2022-09-03T07:56:05;4.23;;;2.07;;
16436;SDS011;8328;52.206;21.006;2022-09-03T07:58:32;2.73;;;1.97;;
16436;SDS011;8328;52.206;21.006;2022-09-03T08:01:03;2.57;;;1.43;;
16436;SDS011;8328;52.206;21.006;2022-09-03T08:03:30;2.50;;;1.80;;
16436;SDS011;8328;52.206;21.006;2022-09-03T08:06:04;5.83;;;1.80;;
16436;SDS011;8328;52.206;21.006;2022-09-03T08:08:31;3.50;;;2.17;;
16436;SDS011;8328;52.206;21.006;2022-09-03T08:11:06;4.93;;;1.53;;
16436;SDS011;8328;52.206;21.006;2022-09-03T08:13:40;2.50;;;1.70;;
16436;SDS011;8328;52.206;21.006;2022-09-03T08:16:21;3.73;;;1.63;;
16436;SDS011;8328;52.206;21.006;2022-09-03T08:18:47;6.43;;;2.37;;
16436;SDS011;8328;52.206;21.006;2022-09-03T08:21:16;3.03;;;1.73;;
16436;SDS011;8328;52.206;21.006;2022-09-03T08:23:44;3.90;;;1.70;;
16436;SDS011;8328;52.206;21.006;2022-09-03T08:26:12;2.87;;;1.77;;
16436;SDS011;8328;52.206;21.006;2022-09-03T08:28:38;3.77;;;1.80;;
16436;SDS011;8328;52.206;21.006;2022-09-03T08:31:08;3.00;;;1.70;;
16436;SDS011;8328;52.206;21.006;2022-09-03T08:33:36;4.10;;;1.80;;
16436;SDS011;8328;52.206;21.006;2022-09-03T08:38:41;4.10;;;2.13;;
16436;SDS011;8328;52.206;21.006;2022-09-03T08:43:51;4.53;;;2.00;;
16436;SDS011;8328;52.206;21.006;2022-09-03T08:46:26;2.77;;;1.97;;
16436;SDS011;8328;52.206;21.006;2022-09-03T08:49:06;1.80;;;1.50;;
16436;SDS011;8328;52.206;21.006;2022-09-03T08:51:37;3.70;;;1.80;;
16436;SDS011;8328;52.206;21.006;2022-09-03T08:54:04;4.43;;;1.83;;
16436;SDS011;8328;52.206;21.006;2022-09-03T08:56:33;2.87;;;1.70;;
16436;SDS011;8328;52.206;21.006;2022-09-03T08:59:02;3.50;;;1.90;;
16436;SDS011;8328;52.206;21.006;2022-09-03T09:06:41;2.63;;;1.70;;
16436;SDS011;8328;52.206;21.006;2022-09-03T09:09:21;4.00;;;1.60;;
16436;SDS011;8328;52.206;21.006;2022-09-03T09:20:30;4.17;;;1.57;;
16436;SDS011;8328;52.206;21.006;2022-09-03T09:25:30;3.10;;;1.63;;
16436;SDS011;8328;52.206;21.006;2022-09-03T09:28:12;2.17;;;1.47;;
16436;SDS011;8328;52.206;21.006;2022-09-03T09:30:46;4.83;;;1.83;;
16436;SDS011;8328;52.206;21.006;2022-09-03T09:33:14;4.70;;;1.50;;
16436;SDS011;8328;52.206;21.006;2022-09-03T09:35:41;5.33;;;2.10;;
16436;SDS011;8328;52.206;21.006;2022-09-03T09:38:07;3.90;;;1.53;;
16436;SDS011;8328;52.206;21.006;2022-09-03T09:40:35;2.93;;;1.33;;
16436;SDS011;8328;52.206;21.006;2022-09-03T09:43:16;2.47;;;1.60;;
16436;SDS011;8328;52.206;21.006;2022-09-03T09:45:48;2.47;;;1.47;;
16436;SDS011;8328;52.206;21.006;2022-09-03T09:48:36;4.40;;;2.73;;
16436;SDS011;8328;52.206;21.006;2022-09-03T09:51:10;3.00;;;1.37;;
16436;SDS011;8328;52.206;21.006;2022-09-03T09:53:39;5.07;;;1.83;;
16436;SDS011;8328;52.206;21.006;2022-09-03T09:56:05;5.23;;;1.53;;
16436;SDS011;8328;52.206;21.006;2022-09-03T09:58:33;3.10;;;1.60;;
16436;SDS011;8328;52.206;21.006;2022-09-03T10:01:14;1.70;;;1.57;;
16436;SDS011;8328;52.206;21.006;2022-09-03T10:03:53;3.67;;;1.67;;
16436;SDS011;8328;52.206;21.006;2022-09-03T10:06:30;2.80;;;1.50;;
16436;SDS011;8328;52.206;21.006;2022-09-03T10:09:15;2.87;;;1.33;;
16436;SDS011;8328;52.206;21.006;2022-09-03T10:11:44;3.00;;;1.50;;
16436;SDS011;8328;52.206;21.006;2022-09-03T10:14:26;2.53;;;1.73;;
16436;SDS011;8328;52.206;21.006;2022-09-03T10:20:10;5.53;;;1.40;;
16436;SDS011;8328;52.206;21.006;2022-09-03T10:23:06;2.17;;;1.37;;
16436;SDS011;8328;52.206;21.006;2022-09-03T10:28:39;2.40;;;1.20;;
16436;SDS011;8328;52.206;21.006;2022-09-03T10:34:05;2.07;;;1.03;;
16436;SDS011;8328;52.206;21.006;2022-09-03T10:36:46;2.67;;;1.40;;
16436;SDS011;8328;52.206;21.006;2022-09-03T10:39:21;2.97;;;1.20;;
16436;SDS011;8328;52.206;21.006;2022-09-03T10:44:37;3.50;;;1.30;;
16436;SDS011;8328;52.206;21.006;2022-09-03T10:47:41;3.27;;;1.50;;
16436;SDS011;8328;52.206;21.006;2022-09-03T10:50:32;3.30;;;1.30;;
16436;SDS011;8328;52.206;21.006;2022-09-03T10:56:29;3.33;;;1.20;;
16436;SDS011;8328;52.206;21.006;2022-09-03T11:04:45;1.63;;;1.10;;
16436;SDS011;8328;52.206;21.006;2022-09-03T11:07:24;2.37;;;1.13;;
16436;SDS011;8328;52.206;21.006;2022-09-03T11:12:43;1.57;;;1.20;;
16436;SDS011;8328;52.206;21.006;2022-09-03T11:17:45;1.37;;;1.27;;
16436;SDS011;8328;52.206;21.006;2022-09-03T11:20:18;2.63;;;1.00;;
16436;SDS011;8328;52.206;21.006;2022-09-03T11:22:46;2.10;;;1.20;;
16436;SDS011;8328;52.206;21.006;2022-09-03T11:25:16;3.93;;;1.10;;
16436;SDS011;8328;52.206;21.006;2022-09-03T11:30:51;3.80;;;1.00;;
16436;SDS011;8328;52.206;21.006;2022-09-03T11:33:47;1.77;;;1.10;;
16436;SDS011;8328;52.206;21.006;2022-09-03T11:36:43;1.70;;;1.00;;
16436;SDS011;8328;52.206;21.006;2022-09-03T11:39:13;2.77;;;0.87;;
16436;SDS011;8328;52.206;21.006;2022-09-03T11:41:55;2.43;;;1.10;;
16436;SDS011;8328;52.206;21.006;2022-09-03T11:44:23;2.03;;;1.00;;
16436;SDS011;8328;52.206;21.006;2022-09-03T11:47:00;1.57;;;1.03;;
16436;SDS011;8328;52.206;21.006;2022-09-03T11:49:29;4.30;;;1.23;;
16436;SDS011;8328;52.206;21.006;2022-09-03T11:52:01;2.57;;;1.13;;
16436;SDS011;8328;52.206;21.006;2022-09-03T11:54:41;2.20;;;1.10;;
16436;SDS011;8328;52.206;21.006;2022-09-03T11:57:09;2.83;;;1.30;;
16436;SDS011;8328;52.206;21.006;2022-09-03T11:59:39;2.00;;;1.00;;
16436;SDS011;8328;52.206;21.006;2022-09-03T12:08:39;1.60;;;1.30;;
16436;SDS011;8328;52.206;21.006;2022-09-03T12:10:38;1.70;;;1.30;;
16436;SDS011;8328;52.206;21.006;2022-09-03T12:16:07;1.57;;;0.90;;
16436;SDS011;8328;52.206;21.006;2022-09-03T12:18:43;1.53;;;1.03;;
16436;SDS011;8328;52.206;21.006;2022-09-03T12:21:15;3.07;;;1.07;;
16436;SDS011;8328;52.206;21.006;2022-09-03T12:26:11;2.70;;;1.50;;
16436;SDS011;8328;52.206;21.006;2022-09-03T12:28:52;1.70;;;1.13;;
16436;SDS011;8328;52.206;21.006;2022-09-03T12:31:29;1.73;;;1.10;;
16436;SDS011;8328;52.206;21.006;2022-09-03T12:34:17;1.80;;;1.10;;
16436;SDS011;8328;52.206;21.006;2022-09-03T12:36:45;2.57;;;1.33;;
16436;SDS011;8328;52.206;21.006;2022-09-03T12:39:23;2.20;;;1.40;;
16436;SDS011;8328;52.206;21.006;2022-09-03T12:44:32;2.10;;;1.40;;
16436;SDS011;8328;52.206;21.006;2022-09-03T12:49:37;2.23;;;1.30;;
16436;SDS011;8328;52.206;21.006;2022-09-03T12:55:00;5.93;;;1.40;;
16436;SDS011;8328;52.206;21.006;2022-09-03T12:57:39;2.40;;;1.10;;
16436;SDS011;8328;52.206;21.006;2022-09-03T13:00:14;3.03;;;1.17;;
16436;SDS011;8328;52.206;21.006;2022-09-03T13:05:21;2.60;;;1.10;;
16436;SDS011;8328;52.206;21.006;2022-09-03T13:07:58;1.70;;;1.10;;
16436;SDS011;8328;52.206;21.006;2022-09-03T13:10:33;1.63;;;1.13;;
16436;SDS011;8328;52.206;21.006;2022-09-03T13:13:24;4.97;;;1.10;;
16436;SDS011;8328;52.206;21.006;2022-09-03T13:29:26;2.27;;;1.10;;
16436;SDS011;8328;52.206;21.006;2022-09-03T13:32:09;2.07;;;1.10;;
16436;SDS011;8328;52.206;21.006;2022-09-03T13:34:47;2.53;;;1.20;;
16436;SDS011;8328;52.206;21.006;2022-09-03T13:40:10;3.77;;;1.30;;
16436;SDS011;8328;52.206;21.006;2022-09-03T13:42:57;3.53;;;1.20;;
16436;SDS011;8328;52.206;21.006;2022-09-03T13:54:18;1.30;;;1.00;;
16436;SDS011;8328;52.206;21.006;2022-09-03T13:57:03;1.97;;;1.17;;
16436;SDS011;8328;52.206;21.006;2022-09-03T14:08:19;2.40;;;1.27;;
16436;SDS011;8328;52.206;21.006;2022-09-03T14:10:49;5.40;;;1.77;;
16436;SDS011;8328;52.206;21.006;2022-09-03T14:19:35;2.30;;;1.13;;
16436;SDS011;8328;52.206;21.006;2022-09-03T14:22:23;2.30;;;1.20;;
16436;SDS011;8328;52.206;21.006;2022-09-03T14:25:03;1.97;;;1.10;;
16436;SDS011;8328;52.206;21.006;2022-09-03T14:27:38;2.80;;;1.27;;
16436;SDS011;8328;52.206;21.006;2022-09-03T14:30:05;1.10;;;1.00;;
16436;SDS011;8328;52.206;21.006;2022-09-03T14:35:47;3.63;;;1.37;;
16436;SDS011;8328;52.206;21.006;2022-09-03T14:52:18;1.73;;;1.17;;
16436;SDS011;8328;52.206;21.006;2022-09-03T14:58:13;2.57;;;1.03;;
16436;SDS011;8328;52.206;21.006;2022-09-03T15:00:57;1.97;;;1.00;;
16436;SDS011;8328;52.206;21.006;2022-09-03T15:06:44;1.70;;;0.83;;
16436;SDS011;8328;52.206;21.006;2022-09-03T15:09:18;2.50;;;1.20;;
16436;SDS011;8328;52.206;21.006;2022-09-03T15:12:02;1.57;;;1.37;;
16436;SDS011;8328;52.206;21.006;2022-09-03T15:31:23;1.53;;;1.37;;
16436;SDS011;8328;52.206;21.006;2022-09-03T15:34:15;1.77;;;1.33;;
16436;SDS011;8328;52.206;21.006;2022-09-03T15:36:50;3.10;;;1.23;;
16436;SDS011;8328;52.206;21.006;2022-09-03T15:39:22;2.70;;;1.00;;
16436;SDS011;8328;52.206;21.006;2022-09-03T15:41:54;5.33;;;1.20;;
16436;SDS011;8328;52.206;21.006;2022-09-03T15:44:23;2.33;;;1.57;;
16436;SDS011;8328;52.206;21.006;2022-09-03T15:59:51;2.87;;;1.00;;
16436;SDS011;8328;52.206;21.006;2022-09-03T16:02:33;3.23;;;1.30;;
16436;SDS011;8328;52.206;21.006;2022-09-03T16:10:42;1.70;;;1.30;;
16436;SDS011;8328;52.206;21.006;2022-09-03T16:22:27;6.33;;;2.00;;
16436;SDS011;8328;52.206;21.006;2022-09-03T16:31:00;2.57;;;1.40;;
16436;SDS011;8328;52.206;21.006;2022-09-03T16:52:51;3.40;;;2.47;;
16436;SDS011;8328;52.206;21.006;2022-09-03T17:03:56;6.50;;;4.30;;
16436;SDS011;8328;52.206;21.006;2022-09-03T17:09:43;5.87;;;4.07;;
16436;SDS011;8328;52.206;21.006;2022-09-03T17:15:18;5.50;;;3.77;;
16436;SDS011;8328;52.206;21.006;2022-09-03T17:31:45;5.23;;;2.73;;
16436;SDS011;8328;52.206;21.006;2022-09-03T17:42:28;7.53;;;5.53;;
16436;SDS011;8328;52.206;21.006;2022-09-03T17:45:21;4.90;;;3.43;;
16436;SDS011;8328;52.206;21.006;2022-09-03T17:53:43;5.10;;;3.40;;
16436;SDS011;8328;52.206;21.006;2022-09-03T17:56:22;6.17;;;3.40;;
16436;SDS011;8328;52.206;21.006;2022-09-03T17:59:02;5.30;;;3.60;;
16436;SDS011;8328;52.206;21.006;2022-09-03T18:01:36;7.90;;;3.97;;
16436;SDS011;8328;52.206;21.006;2022-09-03T18:09:55;5.80;;;3.10;;
16436;SDS011;8328;52.206;21.006;2022-09-03T18:12:40;6.83;;;3.30;;
16436;SDS011;8328;52.206;21.006;2022-09-03T18:15:31;8.40;;;3.67;;
16436;SDS011;8328;52.206;21.006;2022-09-03T18:18:03;5.03;;;3.23;;
16436;SDS011;8328;52.206;21.006;2022-09-03T18:20:44;6.50;;;3.43;;
16436;SDS011;8328;52.206;21.006;2022-09-03T18:24:20;5.20;;;3.50;;
16436;SDS011;8328;52.206;21.006;2022-09-03T18:27:14;7.13;;;3.87;;
16436;SDS011;8328;52.206;21.006;2022-09-03T18:30:06;5.97;;;4.03;;
16436;SDS011;8328;52.206;21.006;2022-09-03T18:32:54;6.70;;;4.73;;
16436;SDS011;8328;52.206;21.006;2022-09-03T18:35:39;7.30;;;4.33;;
16436;SDS011;8328;52.206;21.006;2022-09-03T18:38:27;9.30;;;4.53;;
16436;SDS011;8328;52.206;21.006;2022-09-03T18:41:31;7.87;;;4.37;;
16436;SDS011;8328;52.206;21.006;2022-09-03T18:48:20;7.57;;;6.30;;
16436;SDS011;8328;52.206;21.006;2022-09-03T19:07:49;5.57;;;3.80;;
16436;SDS011;8328;52.206;21.006;2022-09-03T19:10:50;6.20;;;4.93;;
16436;SDS011;8328;52.206;21.006;2022-09-03T19:13:40;7.60;;;4.77;;
16436;SDS011;8328;52.206;21.006;2022-09-03T19:22:51;7.23;;;4.60;;
16436;SDS011;8328;52.206;21.006;2022-09-03T19:25:35;8.63;;;5.70;;
16436;SDS011;8328;52.206;21.006;2022-09-03T19:31:40;9.03;;;5.87;;
16436;SDS011;8328;52.206;21.006;2022-09-03T19:38:16;7.30;;;5.60;;
16436;SDS011;8328;52.206;21.006;2022-09-03T19:41:31;5.97;;;4.30;;
16436;SDS011;8328;52.206;21.006;2022-09-03T19:48:18;7.90;;;4.00;;
16436;SDS011;8328;52.206;21.006;2022-09-03T19:51:16;6.20;;;4.23;;
16436;SDS011;8328;52.206;21.006;2022-09-03T19:54:03;6.63;;;4.70;;
16436;SDS011;8328;52.206;21.006;2022-09-03T19:56:52;11.70;;;4.57;;
16436;SDS011;8328;52.206;21.006;2022-09-03T19:59:39;7.00;;;4.87;;
16436;SDS011;8328;52.206;21.006;2022-09-03T20:02:27;6.30;;;3.90;;
16436;SDS011;8328;52.206;21.006;2022-09-03T20:05:15;7.40;;;5.73;;
16436;SDS011;8328;52.206;21.006;2022-09-03T20:08:02;9.97;;;5.07;;
16436;SDS011;8328;52.206;21.006;2022-09-03T20:10:48;5.70;;;4.40;;
16436;SDS011;8328;52.206;21.006;2022-09-03T20:13:18;5.27;;;4.20;;
16436;SDS011;8328;52.206;21.006;2022-09-03T20:18:20;7.17;;;4.30;;
16436;SDS011;8328;52.206;21.006;2022-09-03T20:21:00;10.90;;;4.83;;
16436;SDS011;8328;52.206;21.006;2022-09-03T20:31:26;6.47;;;4.10;;
16436;SDS011;8328;52.206;21.006;2022-09-03T20:37:22;7.20;;;4.20;;
16436;SDS011;8328;52.206;21.006;2022-09-03T20:45:27;11.33;;;4.37;;
16436;SDS011;8328;52.206;21.006;2022-09-03T20:48:08;5.73;;;4.40;;
16436;SDS011;8328;52.206;21.006;2022-09-03T20:53:39;6.73;;;4.90;;
16436;SDS011;8328;52.206;21.006;2022-09-03T20:56:16;7.30;;;4.20;;
16436;SDS011;8328;52.206;21.006;2022-09-03T21:04:16;10.47;;;4.60;;
16436;SDS011;8328;52.206;21.006;2022-09-03T21:07:03;7.03;;;4.60;;
16436;SDS011;8328;52.206;21.006;2022-09-03T21:09:48;5.87;;;4.23;;
16436;SDS011;8328;52.206;21.006;2022-09-03T21:15:09;7.50;;;4.60;;
16436;SDS011;8328;52.206;21.006;2022-09-03T21:23:20;9.27;;;4.43;;
16436;SDS011;8328;52.206;21.006;2022-09-03T21:25:51;9.07;;;5.03;;
16436;SDS011;8328;52.206;21.006;2022-09-03T21:28:33;8.20;;;4.63;;
16436;SDS011;8328;52.206;21.006;2022-09-03T21:31:08;7.67;;;5.00;;
16436;SDS011;8328;52.206;21.006;2022-09-03T21:33:39;11.77;;;4.87;;
16436;SDS011;8328;52.206;21.006;2022-09-03T21:36:13;7.63;;;4.80;;
16436;SDS011;8328;52.206;21.006;2022-09-03T21:38:43;9.33;;;5.00;;
16436;SDS011;8328;52.206;21.006;2022-09-03T21:44:02;8.03;;;5.00;;
16436;SDS011;8328;52.206;21.006;2022-09-03T21:46:45;8.27;;;5.30;;
16436;SDS011;8328;52.206;21.006;2022-09-03T21:49:37;8.03;;;4.50;;
16436;SDS011;8328;52.206;21.006;2022-09-03T21:52:16;7.40;;;4.73;;
16436;SDS011;8328;52.206;21.006;2022-09-03T21:54:45;9.40;;;5.03;;